Bentleyville, Ohio
Current Conditions -  °F | °C
As of 6:45 AM on Friday 19 Dec 2014 (Local Time) from KCGF Reporting Station
Overcast Overcast  
Wind Chill: 22°   Ceiling: 2000
Heat Index: 32°   Visibility: 10mi
Dew Point: 25°   Wind: 14mph
Humidity: 75%   Direction: 310°NW
Pressure: 30.2"   Gusts: NA
Location:  41.4475°N, 81.4018°W
Report Text: KCGF 191145Z 31012KT 10SM OVC020 00/M04 A3020
Loading
Personal Weather Stations






























Interactive Weather Map New forecast layout! Learn more

10-Day Weather Forecast

Advertisements
Track Severe Weather on mobile